createdAt,value
2022-12-18T00:02:14.036Z,-7.80
2022-12-18T00:04:42.343Z,-7.80
2022-12-18T00:07:10.820Z,-7.80
2022-12-18T00:09:40.208Z,-7.80
2022-12-18T00:14:34.252Z,-7.80
2022-12-18T00:17:01.777Z,-7.80
2022-12-18T00:19:29.301Z,-7.80
2022-12-18T00:21:57.662Z,-7.80
2022-12-18T00:24:25.197Z,-7.80
2022-12-18T00:26:52.742Z,-7.80
2022-12-18T00:29:20.315Z,-7.80
2022-12-18T00:31:47.912Z,-7.80
2022-12-18T00:34:15.416Z,-7.80
2022-12-18T00:36:43.874Z,-7.80
2022-12-18T00:39:11.419Z,-7.80
2022-12-18T00:41:58.293Z,-7.80
2022-12-18T00:44:25.827Z,-7.80
2022-12-18T00:46:53.372Z,-7.80
2022-12-18T00:49:20.955Z,-7.80
2022-12-18T00:51:48.512Z,-7.80
2022-12-18T00:54:16.069Z,-7.90
2022-12-18T00:56:50.270Z,-7.90
2022-12-18T00:59:11.173Z,-8.00
2022-12-18T01:01:38.911Z,-8.00
2022-12-18T01:04:07.128Z,-8.00
2022-12-18T01:06:35.402Z,-8.00
2022-12-18T01:09:02.977Z,-8.00
2022-12-18T01:11:30.511Z,-8.00
2022-12-18T01:14:00.627Z,-7.90
2022-12-18T01:16:28.269Z,-7.90
2022-12-18T01:18:55.766Z,-7.90
2022-12-18T01:21:23.298Z,-7.80
2022-12-18T01:23:53.769Z,-7.80
2022-12-18T01:26:21.351Z,-7.80
2022-12-18T01:28:48.895Z,-7.80
2022-12-18T01:31:16.488Z,-7.80
2022-12-18T01:33:44.929Z,-7.90
2022-12-18T01:36:21.278Z,-7.70
2022-12-18T01:38:48.823Z,-7.70
2022-12-18T01:41:16.425Z,-7.80
2022-12-18T01:43:46.628Z,-7.90
2022-12-18T01:46:14.258Z,-8.00
2022-12-18T01:48:41.749Z,-8.00
2022-12-18T01:51:09.282Z,-8.10
2022-12-18T01:53:37.197Z,-8.10
2022-12-18T01:56:04.400Z,-8.20
2022-12-18T01:58:49.797Z,-8.20
2022-12-18T02:01:17.449Z,-8.20
2022-12-18T02:03:44.932Z,-8.20
2022-12-18T02:06:31.097Z,-8.20
2022-12-18T02:09:10.331Z,-8.20
2022-12-18T02:12:11.866Z,-8.10
2022-12-18T02:14:45.140Z,-8.10
2022-12-18T02:17:19.065Z,-8.20
2022-12-18T02:20:04.459Z,-8.20
2022-12-18T02:22:34.741Z,-8.20
2022-12-18T02:25:23.721Z,-8.30
2022-12-18T02:27:51.306Z,-8.20
2022-12-18T02:30:18.831Z,-8.20
2022-12-18T02:32:47.160Z,-8.30
2022-12-18T02:35:17.535Z,-8.30
2022-12-18T02:37:45.083Z,-8.30
2022-12-18T02:40:13.408Z,-8.10
2022-12-18T02:42:41.256Z,-8.10
2022-12-18T02:45:08.849Z,-8.10
2022-12-18T02:47:36.396Z,-8.10
2022-12-18T02:50:29.334Z,-8.10
2022-12-18T02:53:14.816Z,-8.10
2022-12-18T02:55:45.079Z,-8.10
2022-12-18T02:58:49.025Z,-8.20
2022-12-18T03:01:28.453Z,-8.20
2022-12-18T03:04:07.912Z,-8.00
2022-12-18T03:06:35.505Z,-8.10
2022-12-18T03:09:03.068Z,-8.20
2022-12-18T03:11:48.504Z,-8.20
2022-12-18T03:14:16.039Z,-8.30
2022-12-18T03:16:44.466Z,-8.40
2022-12-18T03:19:11.936Z,-8.40
2022-12-18T03:21:48.647Z,-8.40
2022-12-18T03:24:16.990Z,-8.40
2022-12-18T03:26:47.478Z,-8.50
2022-12-18T03:29:15.022Z,-8.40
2022-12-18T03:31:43.384Z,-8.50
2022-12-18T03:34:11.687Z,-8.50
2022-12-18T03:36:39.211Z,-8.50
2022-12-18T03:39:07.751Z,-8.50
2022-12-18T03:41:47.602Z,-8.60
2022-12-18T03:44:29.928Z,-8.60
2022-12-18T03:47:15.128Z,-8.60
2022-12-18T03:50:12.586Z,-8.40
2022-12-18T03:52:51.195Z,-8.40
2022-12-18T03:55:18.779Z,-8.40
2022-12-18T03:57:47.080Z,-8.40
2022-12-18T04:00:14.696Z,-8.40
2022-12-18T04:02:42.403Z,-8.50
2022-12-18T04:05:10.612Z,-8.60
2022-12-18T04:07:38.146Z,-8.60
2022-12-18T04:10:05.760Z,-8.60
2022-12-18T04:12:33.274Z,-8.60
2022-12-18T04:15:00.798Z,-8.60
2022-12-18T04:17:28.383Z,-8.70
2022-12-18T04:19:55.918Z,-8.60
2022-12-18T04:22:23.472Z,-8.60
2022-12-18T04:24:52.080Z,-8.60
2022-12-18T04:27:19.618Z,-8.60
2022-12-18T04:29:47.152Z,-8.60
2022-12-18T04:32:14.724Z,-8.60
2022-12-18T04:34:43.007Z,-8.70
2022-12-18T04:37:11.309Z,-8.70
2022-12-18T04:39:39.791Z,-8.80
2022-12-18T04:42:07.335Z,-8.70
2022-12-18T04:44:34.876Z,-8.80
2022-12-18T04:47:03.235Z,-8.80
2022-12-18T04:49:30.770Z,-8.80
2022-12-18T04:51:58.307Z,-8.80
2022-12-18T04:54:25.889Z,-8.80
2022-12-18T04:56:53.465Z,-8.80
2022-12-18T04:59:21.008Z,-8.80
2022-12-18T05:01:48.693Z,-8.70
2022-12-18T05:04:16.188Z,-8.40
2022-12-18T05:06:43.702Z,-8.10
2022-12-18T05:09:11.274Z,-8.20
2022-12-18T05:11:39.587Z,-8.30
2022-12-18T05:14:07.132Z,-8.30
2022-12-18T05:16:35.011Z,-8.10
2022-12-18T05:19:02.547Z,-7.90
2022-12-18T05:21:30.850Z,-8.30
2022-12-18T05:23:59.555Z,-8.30
2022-12-18T05:26:27.111Z,-8.40
2022-12-18T05:28:57.355Z,-8.50
2022-12-18T05:31:25.599Z,-8.60
2022-12-18T05:33:53.041Z,-8.60
2022-12-18T05:36:20.596Z,-8.70
2022-12-18T05:38:48.947Z,-8.70
2022-12-18T05:41:17.250Z,-8.60
2022-12-18T05:43:44.809Z,-8.60
2022-12-18T05:46:15.053Z,-8.60
2022-12-18T05:48:43.314Z,-8.70
2022-12-18T05:51:10.835Z,-8.70
2022-12-18T05:53:38.813Z,-8.70
2022-12-18T05:56:05.974Z,-8.70
2022-12-18T05:58:34.276Z,-8.60
2022-12-18T06:01:07.910Z,-8.60
2022-12-18T06:03:35.484Z,-8.70
2022-12-18T06:06:02.954Z,-8.70
2022-12-18T06:08:31.298Z,-8.80
2022-12-18T06:10:58.822Z,-8.90
2022-12-18T06:13:26.356Z,-8.90
2022-12-18T06:15:54.739Z,-8.90
2022-12-18T06:18:22.246Z,-8.90
2022-12-18T06:20:55.688Z,-9.00
2022-12-18T06:23:23.299Z,-8.80
2022-12-18T06:25:50.826Z,-8.80
2022-12-18T06:28:18.359Z,-8.90
2022-12-18T06:30:46.708Z,-8.80
2022-12-18T06:33:14.235Z,-8.90
2022-12-18T06:35:41.775Z,-8.80
2022-12-18T06:38:09.351Z,-8.80
2022-12-18T06:40:36.874Z,-8.90
2022-12-18T06:43:05.161Z,-8.90
2022-12-18T06:45:33.600Z,-8.90
2022-12-18T06:48:01.096Z,-8.90
2022-12-18T06:50:29.392Z,-9.00
2022-12-18T06:52:56.966Z,-9.00
2022-12-18T06:55:24.507Z,-9.00
2022-12-18T06:57:52.041Z,-9.00
2022-12-18T07:00:20.379Z,-9.00
2022-12-18T07:02:47.967Z,-9.00
2022-12-18T07:05:15.437Z,-9.00
2022-12-18T07:07:43.777Z,-9.00
2022-12-18T07:10:11.303Z,-9.00
2022-12-18T07:12:38.831Z,-9.00
2022-12-18T07:15:06.831Z,-9.00
2022-12-18T07:17:34.356Z,-9.00
2022-12-18T07:20:01.909Z,-9.10
2022-12-18T07:22:29.857Z,-9.10
2022-12-18T07:24:57.399Z,-9.10
2022-12-18T07:27:24.963Z,-9.10
2022-12-18T07:29:52.528Z,-9.00
2022-12-18T07:32:20.073Z,-8.70
2022-12-18T07:34:47.597Z,-8.70
2022-12-18T07:37:15.191Z,-8.70
2022-12-18T07:39:42.733Z,-8.70
2022-12-18T07:42:28.621Z,-8.70
2022-12-18T07:44:56.153Z,-8.70
2022-12-18T07:47:23.674Z,-8.70
2022-12-18T07:49:51.318Z,-8.70
2022-12-18T07:52:24.217Z,-8.70
2022-12-18T07:54:46.396Z,-8.70
2022-12-18T07:57:41.792Z,-8.60
2022-12-18T07:59:44.802Z,-8.70
2022-12-18T08:02:12.503Z,-8.60
2022-12-18T08:04:39.941Z,-8.60
2022-12-18T08:07:07.475Z,-8.60
2022-12-18T08:09:35.024Z,-8.60
2022-12-18T08:12:03.367Z,-8.50
2022-12-18T08:14:30.889Z,-8.60
2022-12-18T08:16:58.480Z,-8.50
2022-12-18T08:19:26.008Z,-8.50
2022-12-18T08:21:53.532Z,-8.50
2022-12-18T08:24:21.825Z,-8.40
2022-12-18T08:27:06.714Z,-8.50
2022-12-18T08:29:21.550Z,-8.40
2022-12-18T08:31:45.012Z,-8.50
2022-12-18T08:34:12.578Z,-8.40
2022-12-18T08:36:40.100Z,-8.40
2022-12-18T08:39:07.635Z,-8.40
2022-12-18T08:41:35.598Z,-8.40
2022-12-18T08:44:21.021Z,-8.30
2022-12-18T08:46:49.352Z,-8.20
2022-12-18T08:49:16.897Z,-8.20
2022-12-18T08:51:44.457Z,-8.10
2022-12-18T08:54:15.073Z,-7.80
2022-12-18T08:56:42.588Z,-7.40
2022-12-18T08:59:14.454Z,-7.10
2022-12-18T09:01:37.798Z,-7.10
2022-12-18T09:04:05.229Z,-6.90
2022-12-18T09:06:32.772Z,-6.90
2022-12-18T09:09:00.335Z,-7.00
2022-12-18T09:11:27.869Z,-7.00
2022-12-18T09:13:56.169Z,-6.40
2022-12-18T09:16:28.665Z,-6.40
2022-12-18T09:18:51.277Z,-6.40
2022-12-18T09:21:18.796Z,-6.40
2022-12-18T09:23:46.699Z,-6.40
2022-12-18T09:26:14.227Z,-6.50
2022-12-18T09:28:42.314Z,-6.40
2022-12-18T09:31:09.413Z,-6.40
2022-12-18T09:33:36.876Z,-6.30
2022-12-18T09:36:04.419Z,-6.30
2022-12-18T09:38:32.005Z,-6.00
2022-12-18T09:40:59.554Z,-5.90
2022-12-18T09:43:30.229Z,-5.90
2022-12-18T09:46:01.364Z,-5.50
2022-12-18T09:48:37.511Z,-5.60
2022-12-18T09:51:07.274Z,-5.50
2022-12-18T09:53:34.804Z,-5.50
2022-12-18T09:56:03.111Z,-5.50
2022-12-18T09:58:36.990Z,-5.50
2022-12-18T10:01:04.499Z,-5.50
2022-12-18T10:03:32.743Z,-5.60
2022-12-18T10:06:09.630Z,-5.60
2022-12-18T10:08:43.026Z,-5.60
2022-12-18T10:11:29.255Z,-5.50
2022-12-18T10:13:56.794Z,-5.40
2022-12-18T10:16:36.429Z,-5.30
2022-12-18T10:19:21.791Z,-5.20
2022-12-18T10:22:13.270Z,-5.10
2022-12-18T10:24:40.806Z,-4.70
2022-12-18T10:27:17.359Z,-4.50
2022-12-18T10:29:44.906Z,-4.40
2022-12-18T10:32:21.136Z,-4.30
2022-12-18T10:34:49.460Z,-4.10
2022-12-18T10:37:20.138Z,-4.10
2022-12-18T10:39:48.064Z,-4.00
2022-12-18T10:42:18.453Z,-3.90
2022-12-18T10:44:46.068Z,-3.80
2022-12-18T10:47:13.838Z,-3.70
2022-12-18T10:49:42.179Z,-3.50
2022-12-18T10:52:15.731Z,-3.50
2022-12-18T10:54:52.787Z,-3.30
2022-12-18T10:57:38.546Z,-3.40
2022-12-18T11:00:25.135Z,-3.30
2022-12-18T11:02:52.782Z,-3.20
2022-12-18T11:05:32.393Z,-3.20
2022-12-18T11:07:59.948Z,-3.10
2022-12-18T11:10:30.120Z,-3.10
2022-12-18T11:12:57.712Z,-3.00
2022-12-18T11:15:28.249Z,-2.70
2022-12-18T11:17:55.774Z,-2.60
2022-12-18T11:20:23.357Z,-2.50
2022-12-18T11:22:59.641Z,-2.50
2022-12-18T11:25:33.501Z,-2.40
2022-12-18T11:27:57.690Z,-2.40
2022-12-18T11:30:31.519Z,-2.30
2022-12-18T11:33:13.750Z,-2.20
2022-12-18T11:35:44.044Z,-2.10
2022-12-18T11:38:17.199Z,-2.10
2022-12-18T11:40:44.783Z,-2.00
2022-12-18T11:43:12.354Z,-1.90
2022-12-18T11:45:51.569Z,-1.80
2022-12-18T11:48:33.900Z,-1.80
2022-12-18T11:51:01.482Z,-1.70
2022-12-18T11:53:29.786Z,-1.60
2022-12-18T11:56:03.044Z,-1.60
2022-12-18T11:59:07.528Z,-1.60
2022-12-18T12:01:44.786Z,-1.50
2022-12-18T12:04:26.453Z,-1.50
2022-12-18T12:07:05.681Z,-1.50
2022-12-18T12:09:33.596Z,-1.40
2022-12-18T12:12:13.016Z,-1.40
2022-12-18T12:15:04.358Z,-1.40
2022-12-18T12:17:43.796Z,-1.30
2022-12-18T12:20:25.396Z,-1.30
2022-12-18T12:23:10.673Z,-1.20
2022-12-18T12:25:49.895Z,-1.10
2022-12-18T12:28:20.107Z,-1.00
2022-12-18T12:30:50.428Z,-1.00
2022-12-18T12:33:43.000Z,-0.90
2022-12-18T12:36:26.110Z,-0.90
2022-12-18T12:38:53.685Z,-0.90
2022-12-18T12:41:45.147Z,-0.80
2022-12-18T12:44:16.530Z,-0.60
2022-12-18T12:46:44.127Z,-0.60
2022-12-18T12:49:14.133Z,-0.60
2022-12-18T12:51:41.721Z,-0.60
2022-12-18T12:54:21.314Z,-0.40
2022-12-18T12:57:01.306Z,-0.40
2022-12-18T12:59:53.197Z,-0.50
2022-12-18T13:02:33.094Z,-0.50
2022-12-18T13:05:21.841Z,-0.60
2022-12-18T13:07:51.079Z,-0.60
2022-12-18T13:10:19.106Z,-0.70
2022-12-18T13:12:58.259Z,-0.70
2022-12-18T13:15:40.928Z,-0.70
2022-12-18T13:18:11.476Z,-0.80
2022-12-18T13:20:50.818Z,-0.60
2022-12-18T13:23:24.967Z,-0.60
2022-12-18T13:25:52.521Z,-0.60
2022-12-18T13:28:22.990Z,-0.70
2022-12-18T13:33:27.266Z,-0.80
2022-12-18T13:36:04.847Z,-0.80
2022-12-18T13:38:35.283Z,-0.90
2022-12-18T13:41:03.586Z,-0.90
2022-12-18T13:43:40.233Z,-0.90
2022-12-18T13:46:07.398Z,-1.00
2022-12-18T13:48:34.942Z,-1.00
2022-12-18T13:51:06.011Z,-0.80
2022-12-18T13:53:39.358Z,-0.80
2022-12-18T13:56:06.660Z,-0.80
2022-12-18T13:58:34.234Z,-0.90
2022-12-18T14:01:01.820Z,-1.00
2022-12-18T14:03:29.424Z,-1.00
2022-12-18T14:06:00.688Z,-1.10
2022-12-18T14:08:28.214Z,-1.10
2022-12-18T14:10:56.536Z,-1.10
2022-12-18T14:13:32.845Z,-1.10
2022-12-18T14:16:00.905Z,-1.10
2022-12-18T14:18:40.230Z,-1.10
2022-12-18T14:21:08.431Z,-0.90
2022-12-18T14:23:36.736Z,-0.90
2022-12-18T14:26:06.254Z,-0.90
2022-12-18T14:28:32.625Z,-1.00
2022-12-18T14:31:00.290Z,-1.00
2022-12-18T14:33:27.751Z,-0.80
2022-12-18T14:36:01.414Z,-0.60
2022-12-18T14:38:36.035Z,-0.40
2022-12-18T14:41:15.852Z,-0.50
2022-12-18T14:43:44.405Z,-0.80
2022-12-18T14:46:30.369Z,-0.80
2022-12-18T14:48:58.832Z,-1.00
2022-12-18T14:51:29.043Z,-0.80
2022-12-18T14:53:59.328Z,-0.90
2022-12-18T14:56:29.806Z,-1.00
2022-12-18T14:59:03.423Z,-1.20
2022-12-18T15:01:36.823Z,-1.30
2022-12-18T15:04:04.262Z,-1.40
2022-12-18T15:06:31.805Z,-1.40
2022-12-18T15:09:00.295Z,-1.50
2022-12-18T15:11:34.251Z,-1.50
2022-12-18T15:14:01.806Z,-1.50
2022-12-18T15:16:29.478Z,-1.60
2022-12-18T15:18:57.750Z,-1.10
2022-12-18T15:21:25.240Z,-1.10
2022-12-18T15:23:52.825Z,-1.10
2022-12-18T15:26:20.367Z,-1.20
2022-12-18T15:28:53.296Z,-1.30
2022-12-18T15:31:23.885Z,-1.40
2022-12-18T15:33:54.565Z,-1.40
2022-12-18T15:36:26.340Z,-1.50
2022-12-18T15:38:49.714Z,-1.50
2022-12-18T15:41:24.218Z,-1.40
2022-12-18T15:43:45.609Z,-1.40
2022-12-18T15:46:16.218Z,-1.40
2022-12-18T15:48:43.712Z,-1.50
2022-12-18T15:51:16.769Z,-1.60
2022-12-18T15:53:44.650Z,-1.60
2022-12-18T15:56:32.999Z,-1.70
2022-12-18T15:59:00.553Z,-1.70
2022-12-18T16:01:28.214Z,-1.70
2022-12-18T16:03:55.665Z,-1.70
2022-12-18T16:06:24.526Z,-1.70
2022-12-18T16:08:52.054Z,-1.80
2022-12-18T16:11:40.587Z,-1.70
2022-12-18T16:14:20.026Z,-1.80
2022-12-18T16:16:47.954Z,-1.80
2022-12-18T16:19:15.506Z,-1.80
2022-12-18T16:21:43.030Z,-1.60
2022-12-18T16:24:13.430Z,-1.50
2022-12-18T16:26:41.228Z,-1.30
2022-12-18T16:29:08.723Z,-1.30
2022-12-18T16:31:36.349Z,-1.40
2022-12-18T16:34:15.537Z,-1.50
2022-12-18T16:36:43.339Z,-1.50
2022-12-18T16:39:10.842Z,-1.60
2022-12-18T16:41:38.387Z,-1.60
2022-12-18T16:44:05.961Z,-1.70
2022-12-18T16:46:33.561Z,-1.70
2022-12-18T16:49:01.039Z,-1.70
2022-12-18T16:51:29.384Z,-1.70
2022-12-18T16:53:56.917Z,-1.80
2022-12-18T16:56:24.451Z,-1.70
2022-12-18T16:58:54.688Z,-1.70
2022-12-18T17:01:22.255Z,-1.70
2022-12-18T17:03:56.469Z,-1.70
2022-12-18T17:06:25.909Z,-1.70
2022-12-18T17:09:03.178Z,-1.60
2022-12-18T17:11:30.753Z,-1.60
2022-12-18T17:13:58.286Z,-1.60
2022-12-18T17:16:25.877Z,-1.60
2022-12-18T17:18:53.414Z,-1.60
2022-12-18T17:21:20.943Z,-1.60
2022-12-18T17:23:48.488Z,-1.50
2022-12-18T17:26:16.886Z,-1.50
2022-12-18T17:28:44.419Z,-1.50
2022-12-18T17:31:15.698Z,-1.50
2022-12-18T17:33:43.787Z,-1.50
2022-12-18T17:36:10.744Z,-1.50
2022-12-18T17:38:38.286Z,-1.40
2022-12-18T17:41:05.899Z,-1.40
2022-12-18T17:46:12.918Z,-1.30
2022-12-18T17:48:41.185Z,-1.30
2022-12-18T17:51:08.749Z,-1.30
2022-12-18T17:53:36.325Z,-1.30
2022-12-18T17:56:03.867Z,-1.40
2022-12-18T17:58:31.402Z,-1.40
2022-12-18T18:00:59.755Z,-1.50
2022-12-18T18:03:27.446Z,-1.50
2022-12-18T18:05:57.580Z,-1.50
2022-12-18T18:08:25.155Z,-1.50
2022-12-18T18:10:52.680Z,-1.50
2022-12-18T18:13:47.132Z,-1.50
2022-12-18T18:16:12.214Z,-1.50
2022-12-18T18:18:40.468Z,-1.50
2022-12-18T18:21:08.040Z,-1.50
2022-12-18T18:23:35.565Z,-1.50
2022-12-18T18:26:03.877Z,-1.50
2022-12-18T18:28:31.453Z,-1.50
2022-12-18T18:30:58.977Z,-1.50
2022-12-18T18:33:26.510Z,-1.40
2022-12-18T18:35:55.060Z,-1.40
2022-12-18T18:38:22.378Z,-1.40
2022-12-18T18:40:49.918Z,-1.30
2022-12-18T18:43:18.633Z,-1.30
2022-12-18T18:45:47.362Z,-1.30
2022-12-18T18:48:14.795Z,-1.30
2022-12-18T18:50:42.358Z,-1.30
2022-12-18T18:53:09.877Z,-1.30
2022-12-18T18:55:37.411Z,-1.20
2022-12-18T18:58:05.815Z,-1.20
2022-12-18T19:00:33.380Z,-1.20
2022-12-18T19:03:01.154Z,-1.10
2022-12-18T19:05:28.811Z,-1.10
2022-12-18T19:07:56.341Z,-1.10
2022-12-18T19:10:24.656Z,-1.10
2022-12-18T19:13:10.030Z,-1.10
2022-12-18T19:15:37.556Z,-1.10
2022-12-18T19:18:05.860Z,-1.10
2022-12-18T19:20:33.433Z,-1.10
2022-12-18T19:23:00.993Z,-1.10
2022-12-18T19:25:40.335Z,-1.10
2022-12-18T19:27:56.104Z,-1.10
2022-12-18T19:30:23.634Z,-1.10
2022-12-18T19:32:51.180Z,-1.10
2022-12-18T19:35:19.547Z,-1.00
2022-12-18T19:37:47.072Z,-1.10
2022-12-18T19:40:14.616Z,-1.00
2022-12-18T19:42:42.191Z,-0.80
2022-12-18T19:45:09.822Z,-0.80
2022-12-18T19:47:37.366Z,-0.80
2022-12-18T19:50:05.740Z,-0.90
2022-12-18T19:52:33.242Z,-0.90
2022-12-18T19:55:00.792Z,-0.90
2022-12-18T19:57:28.693Z,-0.60
2022-12-18T19:59:56.315Z,-0.60
2022-12-18T20:02:23.955Z,-0.70
2022-12-18T20:04:52.180Z,-0.40
2022-12-18T20:07:19.727Z,-0.50
2022-12-18T20:09:47.254Z,-0.50
2022-12-18T20:12:14.837Z,-0.60
2022-12-18T20:14:42.632Z,-0.70
2022-12-18T20:17:10.157Z,-0.70
2022-12-18T20:19:37.745Z,-0.80
2022-12-18T20:22:05.267Z,-0.70
2022-12-18T20:24:32.803Z,-0.70
2022-12-18T20:27:00.394Z,-0.70
2022-12-18T20:29:27.969Z,-0.80
2022-12-18T20:31:55.539Z,-0.80
2022-12-18T20:34:23.064Z,-0.80
2022-12-18T20:36:50.612Z,-0.70
2022-12-18T20:39:18.145Z,-0.70
2022-12-18T20:41:46.659Z,-0.70
2022-12-18T20:44:23.441Z,-0.70
2022-12-18T20:46:42.493Z,-0.70
2022-12-18T20:49:10.057Z,-0.70
2022-12-18T20:51:37.581Z,-0.70
2022-12-18T20:54:10.325Z,-0.60
2022-12-18T20:56:33.468Z,-0.70
2022-12-18T20:59:01.043Z,-0.70
2022-12-18T21:01:28.661Z,-0.70
2022-12-18T21:03:56.147Z,-0.70
2022-12-18T21:06:23.706Z,-0.60
2022-12-18T21:08:51.218Z,-0.60
2022-12-18T21:11:40.537Z,-0.60
2022-12-18T21:14:10.931Z,-0.60
2022-12-18T21:16:39.285Z,-0.50
2022-12-18T21:19:07.814Z,-0.50
2022-12-18T21:21:38.546Z,-0.50
2022-12-18T21:24:02.899Z,-0.50
2022-12-18T21:26:31.231Z,-0.40
2022-12-18T21:28:58.767Z,-0.50
2022-12-18T21:31:26.407Z,-0.40
2022-12-18T21:34:01.294Z,-0.40
2022-12-18T21:36:21.437Z,-0.40
2022-12-18T21:38:48.982Z,-0.40
2022-12-18T21:41:16.568Z,-0.10
2022-12-18T21:44:02.316Z,-0.10
2022-12-18T21:46:33.294Z,-0.10
2022-12-18T21:49:00.733Z,-0.10
2022-12-18T21:51:28.268Z,-0.10
2022-12-18T21:53:57.599Z,-0.20
2022-12-18T21:56:25.129Z,-0.20
2022-12-18T21:58:55.477Z,-0.20
2022-12-18T22:01:20.381Z,-0.20
2022-12-18T22:03:47.812Z,-0.10
2022-12-18T22:06:15.321Z,-0.10
2022-12-18T22:08:43.788Z,-0.10
2022-12-18T22:11:11.204Z,0.10
2022-12-18T22:13:38.739Z,0.10
2022-12-18T22:16:07.106Z,0.10
2022-12-18T22:18:34.616Z,0.10
2022-12-18T22:21:02.141Z,0.10
2022-12-18T22:23:30.484Z,0.10
2022-12-18T22:25:58.058Z,0.00
2022-12-18T22:28:43.758Z,0.00
2022-12-18T22:31:12.110Z,0.00
2022-12-18T22:33:40.452Z,0.00
2022-12-18T22:36:08.311Z,0.00
2022-12-18T22:38:35.846Z,0.00
2022-12-18T22:41:04.150Z,0.00
2022-12-18T22:43:31.732Z,0.00
2022-12-18T22:45:59.324Z,0.00
2022-12-18T22:48:26.799Z,0.00
2022-12-18T22:50:57.191Z,0.30
2022-12-18T22:53:22.924Z,0.20
2022-12-18T22:55:50.450Z,0.20
2022-12-18T22:58:18.024Z,0.20
2022-12-18T23:00:45.562Z,0.20
2022-12-18T23:03:13.207Z,0.20
2022-12-18T23:05:40.678Z,0.20
2022-12-18T23:08:08.202Z,0.20
2022-12-18T23:10:39.213Z,0.20
2022-12-18T23:13:06.758Z,0.20
2022-12-18T23:15:34.306Z,0.20
2022-12-18T23:18:01.844Z,0.20
2022-12-18T23:20:30.338Z,0.40
2022-12-18T23:22:57.864Z,0.50
2022-12-18T23:25:25.416Z,0.40
2022-12-18T23:27:52.980Z,0.40
2022-12-18T23:30:20.525Z,0.40
2022-12-18T23:32:48.819Z,0.60
2022-12-18T23:35:16.394Z,0.50
2022-12-18T23:38:00.192Z,0.50
2022-12-18T23:40:12.279Z,0.40
2022-12-18T23:42:39.872Z,0.40
2022-12-18T23:45:16.579Z,0.40
2022-12-18T23:47:35.099Z,0.40
2022-12-18T23:50:02.679Z,0.30
2022-12-18T23:52:30.208Z,0.30
2022-12-18T23:54:57.743Z,0.30
2022-12-18T23:57:25.317Z,0.30
2022-12-18T23:59:53.610Z,0.30
